Time;durP1;ratioP1;P1;durP2;ratioP2;P2;SDS_P1;SDS_P2;PMS_P1;PMS_P2;Temp;Humidity;BMP_temperature;BMP_pressure;BME280_temperature;BME280_humidity;BME280_pressure;Samples;Min_cycle;Max_cycle;Signal;HPM_P1;HPM_P2
2021/11/01 00:00:47;;;;;;;6.78;0.90;;;11.30;99.90;;;;;;5095597;28;20020;-77
2021/11/01 00:03:13;;;;;;;3.55;0.80;;;11.30;99.90;;;;;;5095576;28;20473;-75
2021/11/01 00:05:39;;;;;;;5.60;1.67;;;11.20;99.90;;;;;;5095550;28;20047;-73
2021/11/01 00:08:06;;;;;;;3.80;1.02;;;11.30;99.90;;;;;;5095414;28;20470;-73
2021/11/01 00:10:32;;;;;;;5.15;1.02;;;11.30;99.90;;;;;;5095367;28;20008;-76
2021/11/01 00:12:58;;;;;;;3.72;1.10;;;11.30;99.90;;;;;;5095308;28;20035;-75
2021/11/01 00:15:24;;;;;;;3.17;0.82;;;11.30;99.90;;;;;;5095336;28;20381;-75
2021/11/01 00:17:49;;;;;;;2.22;1.05;;;11.30;99.90;;;;;;5095072;28;20055;-76
2021/11/01 00:20:15;;;;;;;5.07;1.08;;;11.20;99.90;;;;;;5095546;28;20101;-75
2021/11/01 00:22:41;;;;;;;2.78;0.90;;;11.20;99.90;;;;;;5093911;28;20454;-71
2021/11/01 00:25:08;;;;;;;3.80;1.02;;;11.20;99.90;;;;;;5095158;28;20024;-75
2021/11/01 00:27:35;;;;;;;4.50;1.17;;;11.10;99.90;;;;;;5095061;28;20098;-73
2021/11/01 00:30:01;;;;;;;8.88;1.35;;;11.10;99.90;;;;;;5093787;28;20020;-73
2021/11/01 00:32:26;;;;;;;3.72;1.38;;;11.20;99.90;;;;;;5095059;28;20028;-73
2021/11/01 00:34:52;;;;;;;5.70;0.80;;;11.10;99.90;;;;;;5095521;28;20055;-76
2021/11/01 00:37:18;;;;;;;7.35;1.10;;;11.20;99.90;;;;;;5093637;28;20036;-74
2021/11/01 00:39:43;;;;;;;6.22;1.38;;;11.20;99.90;;;;;;5094900;28;20393;-72
2021/11/01 00:42:11;;;;;;;7.53;1.48;;;11.20;99.90;;;;;;5094786;28;20039;-75
2021/11/01 00:44:37;;;;;;;2.47;0.95;;;11.20;99.90;;;;;;5093513;28;20035;-73
2021/11/01 00:47:03;;;;;;;4.35;1.17;;;11.20;99.90;;;;;;5093566;28;20385;-72
2021/11/01 00:49:29;;;;;;;6.05;1.63;;;11.10;99.90;;;;;;5094688;28;20073;-74
2021/11/01 00:51:59;;;;;;;4.95;1.45;;;11.10;99.90;;;;;;5094618;28;20526;-74
2021/11/01 00:54:24;;;;;;;4.47;1.08;;;11.10;99.90;;;;;;5095131;28;20031;-72
2021/11/01 00:56:50;;;;;;;7.82;1.65;;;11.00;99.90;;;;;;5094519;28;20016;-73
2021/11/01 00:59:17;;;;;;;7.15;2.03;;;11.10;99.90;;;;;;5094441;28;20478;-76
2021/11/01 01:01:44;;;;;;;5.82;1.55;;;11.10;99.90;;;;;;5094437;28;20450;-75
2021/11/01 01:04:11;;;;;;;8.90;1.75;;;11.10;99.90;;;;;;5094371;28;20024;-75
2021/11/01 01:06:36;;;;;;;7.03;1.58;;;11.10;99.90;;;;;;5094323;28;20066;-72
2021/11/01 01:09:03;;;;;;;11.05;1.40;;;11.00;99.90;;;;;;5094178;28;20024;-72
2021/11/01 01:11:29;;;;;;;5.03;1.27;;;11.00;99.90;;;;;;5094208;28;20443;-74
2021/11/01 01:13:56;;;;;;;7.15;1.73;;;11.00;99.90;;;;;;5094484;28;20016;-73
2021/11/01 01:16:26;;;;;;;11.35;1.88;;;11.00;99.90;;;;;;5093997;28;20019;-73
2021/11/01 01:18:54;;;;;;;14.30;1.77;;;11.00;99.90;;;;;;5094719;28;20081;-73
2021/11/01 01:24:05;;;;;;;8.10;2.03;;;11.00;99.90;;;;;;5093774;28;20039;-73
2021/11/01 01:26:31;;;;;;;3.40;1.17;;;10.90;99.90;;;;;;5093988;28;20032;-74
2021/11/01 01:28:57;;;;;;;7.32;1.58;;;11.00;99.90;;;;;;5094177;28;20078;-75
2021/11/01 01:31:24;;;;;;;12.20;1.90;;;10.90;99.90;;;;;;5093866;28;20437;-74
2021/11/01 01:33:50;;;;;;;5.45;1.52;;;10.90;99.90;;;;;;5094413;28;20020;-72
2021/11/01 01:36:15;;;;;;;5.00;1.67;;;10.90;99.90;;;;;;5094075;28;20028;-75
2021/11/01 01:38:41;;;;;;;9.80;2.00;;;10.90;99.90;;;;;;5093771;28;20392;-75
2021/11/01 01:41:19;;;;;;;4.65;1.25;;;10.80;99.90;;;;;;5093755;28;20028;-74
2021/11/01 01:43:52;;;;;;;5.45;1.45;;;10.80;99.90;;;;;;5093739;28;20077;-76
2021/11/01 01:46:18;;;;;;;5.40;1.45;;;10.80;99.90;;;;;;5094002;28;20035;-77
2021/11/01 01:48:44;;;;;;;8.90;1.30;;;10.80;99.90;;;;;;5092287;28;20028;-75
2021/11/01 01:51:10;;;;;;;5.65;1.40;;;10.70;99.90;;;;;;5094093;28;20022;-75
2021/11/01 01:53:36;;;;;;;12.35;2.08;;;10.60;99.90;;;;;;5093577;28;20027;-75
2021/11/01 01:56:04;;;;;;;8.00;1.23;;;10.60;99.90;;;;;;5093511;28;20382;-76
2021/11/01 01:58:32;;;;;;;5.35;1.40;;;10.50;99.90;;;;;;5093207;28;20055;-74
2021/11/01 02:01:08;;;;;;;7.15;1.98;;;10.50;99.90;;;;;;5093736;28;20035;-75
2021/11/01 02:03:36;;;;;;;5.57;1.40;;;10.50;99.90;;;;;;5091911;28;20020;-77
2021/11/01 02:06:05;;;;;;;5.80;1.80;;;10.40;99.90;;;;;;5093395;28;20500;-75
2021/11/01 02:08:38;;;;;;;9.75;1.90;;;10.40;99.90;;;;;;5093230;28;20042;-71
2021/11/01 02:11:10;;;;;;;7.95;1.63;;;10.50;99.90;;;;;;5093654;28;20024;-73
2021/11/01 02:13:43;;;;;;;7.32;1.33;;;10.50;99.90;;;;;;5093615;28;20098;-74
2021/11/01 02:16:11;;;;;;;8.63;1.83;;;10.50;99.90;;;;;;5093462;28;20501;-76
2021/11/01 02:18:38;;;;;;;5.13;1.42;;;10.50;99.90;;;;;;5091798;28;20055;-74
2021/11/01 02:21:09;;;;;;;15.95;2.00;;;10.50;99.90;;;;;;5093106;28;20502;-73
2021/11/01 02:24:16;;;;;;;9.30;1.90;;;10.50;99.90;;;;;;5093553;28;20027;-72
2021/11/01 02:26:42;;;;;;;5.72;1.40;;;10.60;99.90;;;;;;5011229;28;20483;-74
2021/11/01 02:29:09;;;;;;;7.65;1.60;;;10.50;99.90;;;;;;5011261;28;20034;-75
2021/11/01 02:31:36;;;;;;;8.02;1.55;;;10.50;99.90;;;;;;5051832;28;20024;-74
2021/11/01 02:34:03;;;;;;;9.48;1.85;;;10.50;99.90;;;;;;5093143;28;20028;-76
2021/11/01 02:36:30;;;;;;;8.70;1.27;;;10.40;99.90;;;;;;5093110;28;20470;-75
2021/11/01 02:38:57;;;;;;;6.70;1.30;;;10.40;99.90;;;;;;5091841;28;20035;-72
2021/11/01 02:41:24;;;;;;;7.75;1.80;;;10.40;99.90;;;;;;5093619;28;20077;-74
2021/11/01 02:43:59;;;;;;;7.68;1.65;;;10.40;99.90;;;;;;5093040;28;20028;-73
2021/11/01 02:46:26;;;;;;;8.27;1.80;;;10.40;99.90;;;;;;5093605;28;20024;-74
2021/11/01 02:48:53;;;;;;;9.27;1.73;;;10.40;99.90;;;;;;5092903;28;20055;-73
2021/11/01 02:51:20;;;;;;;6.82;1.27;;;10.40;99.90;;;;;;5091705;28;20047;-73
2021/11/01 02:53:48;;;;;;;6.97;1.48;;;10.40;99.90;;;;;;5092931;28;20020;-76
2021/11/01 02:56:14;;;;;;;7.90;1.67;;;10.50;99.90;;;;;;5093211;28;20056;-78
2021/11/01 02:58:41;;;;;;;11.07;1.90;;;10.30;99.90;;;;;;5093175;28;20024;-74
2021/11/01 03:01:12;;;;;;;9.90;1.73;;;10.40;99.90;;;;;;5093439;28;20028;-76
2021/11/01 03:03:39;;;;;;;10.50;2.30;;;10.40;99.90;;;;;;5092926;28;20051;-72
2021/11/01 03:06:06;;;;;;;8.15;1.50;;;10.40;99.90;;;;;;5093109;28;20024;-74
2021/11/01 03:08:33;;;;;;;6.32;1.52;;;10.40;99.90;;;;;;5093220;28;20051;-76
2021/11/01 03:11:00;;;;;;;5.65;1.42;;;10.40;99.90;;;;;;5094769;28;20027;-74
2021/11/01 03:13:28;;;;;;;8.57;1.55;;;10.40;99.90;;;;;;5096539;28;20031;-73
2021/11/01 03:15:57;;;;;;;9.20;1.42;;;10.30;99.90;;;;;;5095220;28;20021;-74
2021/11/01 03:18:28;;;;;;;10.07;1.60;;;10.30;99.90;;;;;;5096078;28;20047;-75
2021/11/01 03:20:55;;;;;;;13.13;1.90;;;10.40;99.90;;;;;;5096780;28;20043;-73
2021/11/01 03:23:25;;;;;;;9.63;1.55;;;10.30;99.90;;;;;;5096364;28;20024;-73
2021/11/01 03:26:10;;;;;;;8.20;1.80;;;10.30;99.90;;;;;;5096913;28;20458;-77
2021/11/01 03:28:36;;;;;;;6.00;1.65;;;10.30;99.90;;;;;;5096273;28;20016;-74
2021/11/01 03:31:05;;;;;;;6.95;1.88;;;10.30;99.90;;;;;;5096186;28;20028;-74
2021/11/01 03:33:39;;;;;;;10.35;1.80;;;10.20;99.90;;;;;;5096422;28;20099;-74
2021/11/01 03:36:06;;;;;;;7.78;1.50;;;10.30;99.90;;;;;;5096705;28;20049;-74
2021/11/01 03:38:33;;;;;;;8.95;1.60;;;10.30;99.90;;;;;;5096324;28;20020;-77
2021/11/01 03:41:05;;;;;;;10.82;2.55;;;10.30;99.90;;;;;;5096294;28;20047;-76
2021/11/01 03:43:36;;;;;;;11.60;2.13;;;10.30;99.90;;;;;;5096001;28;20016;-76
2021/11/01 03:46:04;;;;;;;7.85;1.88;;;10.30;99.90;;;;;;5096216;28;20063;-75
2021/11/01 03:48:36;;;;;;;11.40;2.03;;;10.30;99.90;;;;;;5095775;28;20362;-73
2021/11/01 03:51:51;;;;;;;8.65;1.33;;;10.30;99.90;;;;;;5095834;28;20020;-73
2021/11/01 03:53:49;;;;;;;12.60;2.08;;;10.30;99.90;;;;;;5084822;28;20028;-74
2021/11/01 03:56:14;;;;;;;6.70;1.58;;;10.20;99.90;;;;;;5095975;28;20107;-75
2021/11/01 03:58:40;;;;;;;7.45;1.42;;;10.10;99.90;;;;;;5095682;28;20028;-77
2021/11/01 04:01:06;;;;;;;10.35;1.65;;;10.10;99.90;;;;;;5095906;28;20032;-74
2021/11/01 04:03:32;;;;;;;7.82;1.77;;;10.20;99.90;;;;;;5095541;28;20055;-72
2021/11/01 04:06:03;;;;;;;7.32;1.65;;;10.20;99.90;;;;;;5094223;28;20043;-73
2021/11/01 04:08:30;;;;;;;9.45;1.75;;;10.10;99.90;;;;;;5095600;28;20020;-75
2021/11/01 04:10:56;;;;;;;10.25;1.60;;;10.20;99.90;;;;;;5094173;28;20047;-72
2021/11/01 04:13:23;;;;;;;4.68;1.40;;;10.20;99.90;;;;;;5095403;28;20470;-73
2021/11/01 04:15:58;;;;;;;6.00;1.20;;;10.20;99.90;;;;;;5094076;28;20016;-75
2021/11/01 04:18:27;;;;;;;10.45;2.10;;;10.20;99.90;;;;;;5095222;28;20044;-72
2021/11/01 04:20:54;;;;;;;10.32;2.38;;;10.20;99.90;;;;;;5095045;28;20028;-73
2021/11/01 04:23:25;;;;;;;8.75;1.60;;;10.20;99.90;;;;;;5095257;28;20081;-73
2021/11/01 04:25:51;;;;;;;10.52;1.88;;;10.20;99.90;;;;;;5093657;28;20058;-77
2021/11/01 04:28:16;;;;;;;4.88;1.38;;;10.20;99.90;;;;;;5095050;28;20103;-76
2021/11/01 04:30:46;;;;;;;6.95;1.52;;;10.20;99.90;;;;;;5095072;28;20023;-75
2021/11/01 04:33:17;;;;;;;10.30;1.80;;;10.10;99.90;;;;;;5095041;28;20016;-74
2021/11/01 04:35:43;;;;;;;8.63;2.28;;;10.10;99.90;;;;;;5095570;28;20036;-76
2021/11/01 04:53:54;;;;;;;9.52;1.70;;;10.10;99.90;;;;;;5094895;28;20069;-75
2021/11/01 04:56:24;;;;;;;6.78;1.67;;;10.10;99.90;;;;;;5094585;28;20016;-74
2021/11/01 04:58:51;;;;;;;5.45;1.30;;;10.00;99.90;;;;;;5094866;28;20024;-75
2021/11/01 05:01:22;;;;;;;12.80;1.63;;;10.00;99.90;;;;;;5094545;28;20032;-74
2021/11/01 05:03:53;;;;;;;7.22;1.33;;;10.00;99.90;;;;;;5092897;28;20404;-76
2021/11/01 05:06:23;;;;;;;7.63;2.33;;;10.00;99.90;;;;;;5094466;28;20020;-73
2021/11/01 05:09:06;;;;;;;8.32;1.83;;;9.90;99.90;;;;;;5094198;28;20056;-73
2021/11/01 05:11:41;;;;;;;6.63;1.67;;;9.90;99.90;;;;;;5094329;28;20024;-78
2021/11/01 05:14:11;;;;;;;6.25;1.65;;;10.00;99.90;;;;;;5094567;28;20024;-76
2021/11/01 05:17:00;;;;;;;10.30;1.70;;;10.00;99.90;;;;;;5094027;28;20424;-71
2021/11/01 05:19:30;;;;;;;7.35;1.50;;;10.00;99.90;;;;;;5092844;28;20024;-73
2021/11/01 05:22:32;;;;;;;8.05;1.63;;;10.00;99.90;;;;;;5092831;28;20489;-76
2021/11/01 05:24:54;;;;;;;5.68;1.55;;;10.00;99.90;;;;;;5089861;28;20028;-73
2021/11/01 05:27:33;;;;;;;7.50;1.52;;;10.00;99.90;;;;;;5094277;28;20389;-72
2021/11/01 05:30:05;;;;;;;8.18;1.52;;;10.00;99.90;;;;;;5094275;28;20462;-75
2021/11/01 05:32:32;;;;;;;5.43;1.25;;;10.00;99.90;;;;;;5093608;28;20020;-73
2021/11/01 05:34:58;;;;;;;4.93;1.13;;;9.90;99.90;;;;;;5093680;28;20028;-75
2021/11/01 05:37:24;;;;;;;8.15;2.15;;;9.90;99.90;;;;;;5094123;28;20490;-74
2021/11/01 05:39:50;;;;;;;10.57;1.88;;;9.90;99.90;;;;;;5094048;28;20084;-71
2021/11/01 05:42:16;;;;;;;8.65;1.98;;;9.90;99.90;;;;;;5094079;28;20109;-76
2021/11/01 05:44:42;;;;;;;9.82;2.00;;;10.00;99.90;;;;;;5092407;28;20024;-77
2021/11/01 05:47:09;;;;;;;6.60;0.90;;;9.90;99.90;;;;;;5093593;28;20382;-75
2021/11/01 05:49:38;;;;;;;6.22;1.30;;;9.90;99.90;;;;;;5092376;28;20070;-74
2021/11/01 05:52:08;;;;;;;6.97;1.65;;;9.90;99.90;;;;;;5093596;28;20073;-72
2021/11/01 05:54:33;;;;;;;7.88;1.52;;;9.90;99.90;;;;;;5093618;28;20020;-76
2021/11/01 05:57:11;;;;;;;4.32;0.98;;;9.90;99.90;;;;;;5093815;28;20020;-73
2021/11/01 06:00:36;;;;;;;4.70;0.90;;;9.80;99.90;;;;;;5093866;28;20020;-72
2021/11/01 06:10:08;;;;;;;7.68;1.20;;;9.80;99.90;;;;;;5093560;28;20027;-72
2021/11/01 06:15:19;;;;;;;2.42;0.50;;;9.80;99.90;;;;;;5093436;28;20511;-75
2021/11/01 06:17:45;;;;;;;5.47;1.15;;;9.70;99.90;;;;;;5093139;28;20115;-73
2021/11/01 06:20:12;;;;;;;3.88;1.20;;;9.70;99.90;;;;;;5093819;28;20027;-73
2021/11/01 06:22:38;;;;;;;5.55;1.00;;;9.70;99.90;;;;;;5093208;28;20483;-75
2021/11/01 06:25:06;;;;;;;5.82;1.05;;;9.70;99.90;;;;;;5093198;28;20025;-76
2021/11/01 06:27:33;;;;;;;6.30;1.27;;;9.60;99.90;;;;;;5093151;28;20070;-74
2021/11/01 06:30:50;;;;;;;4.35;1.20;;;9.70;99.90;;;;;;5093185;28;20020;-74
2021/11/01 06:51:39;;;;;;;3.20;1.20;;;9.60;99.90;;;;;;5096769;28;20463;-74
2021/11/01 07:18:57;;;;;;;6.05;1.20;;;9.70;99.90;;;;;;5065128;28;20036;-75
2021/11/01 08:26:51;;;;;;;6.65;1.27;;;10.90;99.90;;;;;;5095798;28;20035;-74
2021/11/01 08:29:28;;;;;;;6.60;1.48;;;10.90;99.90;;;;;;5094807;28;20393;-76
2021/11/01 08:40:29;;;;;;;7.85;1.27;;;11.00;99.90;;;;;;5095241;28;20027;-73
2021/11/01 08:48:34;;;;;;;13.30;8.43;;;10.90;99.90;;;;;;5094421;28;20421;-74
2021/11/01 08:50:59;;;;;;;18.67;14.07;;;11.00;99.90;;;;;;5091473;28;20039;-77
2021/11/01 09:27:06;;;;;;;10.70;5.32;;;11.20;99.90;;;;;;5094278;28;20027;-72
2021/11/01 09:30:00;;;;;;;7.88;2.15;;;11.30;99.90;;;;;;5092675;28;20048;-73
2021/11/01 09:42:59;;;;;;;9.88;3.42;;;11.70;99.90;;;;;;5093493;28;20400;-72
2021/11/01 09:45:26;;;;;;;12.88;2.70;;;11.70;99.90;;;;;;5094018;28;20024;-73
2021/11/01 09:47:53;;;;;;;7.25;2.83;;;11.90;99.90;;;;;;5093609;28;20110;-73
2021/11/01 09:50:22;;;;;;;9.35;2.13;;;12.30;99.90;;;;;;5093630;28;20024;-73
2021/11/01 09:52:56;;;;;;;9.82;3.38;;;12.60;99.90;;;;;;5094194;28;20027;-74
2021/11/01 10:00:52;;;;;;;8.15;2.20;;;12.40;99.90;;;;;;5093478;28;20428;-71
2021/11/01 10:03:17;;;;;;;9.93;2.70;;;12.40;99.90;;;;;;5093454;28;20122;-75
2021/11/01 10:05:57;;;;;;;7.57;2.60;;;12.50;99.90;;;;;;5093383;28;20095;-73
2021/11/01 10:08:23;;;;;;;9.10;1.98;;;12.80;99.90;;;;;;5093625;28;20028;-74
2021/11/01 10:10:49;;;;;;;7.35;1.83;;;13.00;99.90;;;;;;5093335;28;20031;-74
2021/11/01 10:13:19;;;;;;;7.88;1.70;;;13.10;99.90;;;;;;5093667;28;20020;-76
2021/11/01 10:18:46;;;;;;;8.63;2.47;;;13.30;99.90;;;;;;5092679;28;20425;-74
2021/11/01 10:21:15;;;;;;;5.40;1.40;;;13.30;99.90;;;;;;5093233;28;20417;-76
2021/11/01 10:23:52;;;;;;;7.15;1.85;;;13.30;99.90;;;;;;5093165;28;20016;-73
2021/11/01 10:26:20;;;;;;;2.33;1.33;;;13.30;99.90;;;;;;5093831;28;20081;-73
2021/11/01 10:28:53;;;;;;;6.43;1.50;;;13.30;99.90;;;;;;5093138;28;20024;-73
2021/11/01 10:31:26;;;;;;;8.48;2.42;;;13.30;99.90;;;;;;5094055;28;20103;-73
2021/11/01 10:34:07;;;;;;;5.47;1.45;;;13.30;99.90;;;;;;5093740;28;20016;-74
2021/11/01 10:36:36;;;;;;;3.17;1.00;;;13.20;99.90;;;;;;5093147;28;20024;-72
2021/11/01 10:39:16;;;;;;;7.22;1.42;;;13.20;99.90;;;;;;5091849;28;20024;-75
2021/11/01 10:41:55;;;;;;;4.40;1.23;;;13.10;99.90;;;;;;5093417;28;20396;-76
2021/11/01 10:45:27;;;;;;;6.68;1.30;;;13.10;99.90;;;;;;5091566;28;20066;-75
2021/11/01 11:12:59;;;;;;;2.63;1.30;;;13.10;99.90;;;;;;5092770;28;20019;-76
2021/11/01 11:15:26;;;;;;;7.00;1.73;;;13.00;99.90;;;;;;5091245;28;20024;-73
2021/11/01 11:40:24;;;;;;;3.25;0.85;;;13.30;99.90;;;;;;5079998;28;20032;-75
2021/11/01 11:43:28;;;;;;;2.97;0.85;;;13.30;99.90;;;;;;5094772;28;20024;-74
2021/11/01 11:48:45;;;;;;;4.93;1.40;;;13.40;99.90;;;;;;5096281;28;20039;-73
2021/11/01 11:51:11;;;;;;;2.40;0.80;;;13.50;99.90;;;;;;5096433;28;20377;-75
2021/11/01 11:53:53;;;;;;;5.15;0.93;;;13.50;99.90;;;;;;5096110;28;20484;-73
2021/11/01 11:56:37;;;;;;;3.58;0.77;;;13.50;99.90;;;;;;5096133;28;20013;-74
2021/11/01 11:59:06;;;;;;;5.60;1.30;;;13.50;99.90;;;;;;5095781;28;20534;-74
2021/11/01 12:01:36;;;;;;;4.93;1.25;;;13.60;99.90;;;;;;5095950;28;20094;-74
2021/11/01 12:04:18;;;;;;;4.32;1.52;;;13.50;99.90;;;;;;5095678;28;20032;-74
2021/11/01 12:07:16;;;;;;;3.30;1.30;;;13.50;99.90;;;;;;5095941;28;20026;-73
2021/11/01 12:09:54;;;;;;;3.45;1.48;;;13.50;99.90;;;;;;5093909;28;20043;-73
2021/11/01 12:17:52;;;;;;;4.03;1.35;;;13.80;99.90;;;;;;5095324;28;20473;-72
2021/11/01 12:20:22;;;;;;;5.45;1.15;;;13.80;99.90;;;;;;5094115;28;20051;-73
2021/11/01 12:22:50;;;;;;;1.20;0.70;;;13.80;99.90;;;;;;5095882;28;20020;-75
2021/11/01 12:25:19;;;;;;;2.92;1.33;;;13.90;99.90;;;;;;5095267;28;20020;-74
2021/11/01 12:27:56;;;;;;;6.43;1.13;;;14.00;99.90;;;;;;5095439;28;20068;-74
2021/11/01 12:30:25;;;;;;;2.75;1.00;;;14.10;99.90;;;;;;5095445;28;20024;-74
2021/11/01 12:32:51;;;;;;;6.85;1.17;;;14.20;99.90;;;;;;5095086;28;20020;-73
2021/11/01 12:35:31;;;;;;;4.72;1.05;;;14.30;99.90;;;;;;5095009;28;20031;-74
2021/11/01 12:38:12;;;;;;;4.47;1.20;;;14.50;99.90;;;;;;5095309;28;20024;-72
2021/11/01 12:40:52;;;;;;;;;;;14.60;99.90;;;;;;5095886;28;20106;-76
2021/11/01 12:57:33;;;;;;;4.85;1.02;;;15.00;99.90;;;;;;5052231;28;20033;-71
2021/11/01 12:59:59;;;;;;;4.28;1.20;;;14.90;99.90;;;;;;5085806;28;20044;-76
2021/11/01 13:02:30;;;;;;;3.45;1.35;;;14.90;99.90;;;;;;5094543;28;20099;-76
2021/11/01 13:05:00;;;;;;;4.55;1.00;;;14.80;99.90;;;;;;5094495;28;20035;-76
2021/11/01 13:07:42;;;;;;;;;;;14.60;99.90;;;;;;5095419;28;20469;-72
2021/11/01 13:20:22;;;;;;;3.97;1.42;;;14.10;99.90;;;;;;5093975;28;20079;-74
2021/11/01 13:22:52;;;;;;;8.85;2.40;;;14.10;99.90;;;;;;5094126;28;20358;-76
2021/11/01 13:25:34;;;;;;;4.45;1.08;;;14.10;99.90;;;;;;5094391;28;20170;-75
2021/11/01 13:37:24;;;;;;;5.20;1.38;;;13.70;99.90;;;;;;5094129;28;20027;-76
2021/11/01 13:40:09;;;;;;;4.15;1.27;;;13.70;99.90;;;;;;5094108;28;20020;-74
2021/11/01 13:42:37;;;;;;;4.93;0.88;;;13.70;99.90;;;;;;5094374;28;20103;-72
2021/11/01 13:45:12;;;;;;;4.45;1.00;;;13.70;99.90;;;;;;5094073;28;20024;-76
2021/11/01 13:47:41;;;;;;;3.42;0.80;;;13.80;99.90;;;;;;5093999;28;20122;-73
2021/11/01 13:50:07;;;;;;;5.30;0.70;;;13.80;99.90;;;;;;5094031;28;20016;-73
2021/11/01 13:52:40;;;;;;;2.50;0.35;;;13.80;99.90;;;;;;5093654;28;20064;-72
2021/11/01 13:55:16;;;;;;;6.65;0.80;;;13.90;99.90;;;;;;5091603;28;20073;-75
2021/11/01 14:00:54;;;;;;;0.65;0.43;;;13.80;99.90;;;;;;5069666;28;20031;-73
2021/11/01 14:11:40;;;;;;;1.08;0.60;;;13.80;99.90;;;;;;5093383;28;20611;-72
2021/11/01 14:14:52;;;;;;;2.03;1.00;;;13.80;99.90;;;;;;5093268;28;20020;-75
2021/11/01 14:17:02;;;;;;;3.25;1.20;;;13.80;99.90;;;;;;5084646;28;20503;-74
2021/11/01 14:33:29;;;;;;;3.83;0.73;;;13.60;99.90;;;;;;5093224;28;20038;-73
2021/11/01 15:11:15;;;;;;;5.03;1.52;;;13.30;99.90;;;;;;5096827;28;20055;-74
2021/11/01 15:19:21;;;;;;;3.65;1.33;;;13.20;99.90;;;;;;5096183;28;20089;-74
2021/11/01 15:32:41;;;;;;;2.97;1.30;;;13.20;99.90;;;;;;5096344;28;20051;-73
2021/11/01 15:37:49;;;;;;;4.57;1.08;;;13.10;99.90;;;;;;5095970;28;20027;-74
2021/11/01 16:18:44;;;;;;;9.15;1.48;;;12.60;99.90;;;;;;5094814;28;20562;-73
2021/11/01 16:21:10;;;;;;;3.20;1.20;;;12.50;99.90;;;;;;5095654;28;20024;-72
2021/11/01 16:23:38;;;;;;;5.75;1.08;;;12.40;99.90;;;;;;5095609;28;20031;-73
2021/11/01 16:28:47;;;;;;;2.92;0.80;;;12.30;99.90;;;;;;5094921;28;20035;-73
2021/11/01 16:33:50;;;;;;;3.67;1.15;;;12.20;99.90;;;;;;5095398;28;20028;-72
2021/11/01 16:36:26;;;;;;;12.73;1.50;;;12.20;99.90;;;;;;5095396;28;20039;-73
2021/11/01 16:38:58;;;;;;;2.88;0.95;;;12.20;99.90;;;;;;5095283;28;20024;-76
2021/11/01 16:41:24;;;;;;;4.05;1.58;;;12.20;99.90;;;;;;5095536;28;20035;-75
2021/11/01 16:43:50;;;;;;;5.65;1.63;;;12.10;99.90;;;;;;5094912;28;20065;-73
2021/11/01 16:46:16;;;;;;;5.20;1.45;;;12.10;99.90;;;;;;5095148;28;20032;-75
2021/11/01 16:48:45;;;;;;;4.82;1.83;;;12.10;99.90;;;;;;5094707;28;20024;-75
2021/11/01 16:51:13;;;;;;;9.98;1.98;;;12.10;99.90;;;;;;5094766;28;20024;-75
2021/11/01 16:53:47;;;;;;;3.80;1.45;;;12.10;99.90;;;;;;5093411;28;20099;-74
2021/11/01 16:56:45;;;;;;;7.03;1.33;;;12.00;99.90;;;;;;5093080;28;20048;-73
2021/11/01 17:02:24;;;;;;;5.40;1.52;;;12.00;99.90;;;;;;5060297;28;20040;-74
2021/11/01 17:05:05;;;;;;;9.65;1.45;;;11.90;99.90;;;;;;5094841;28;20028;-76
2021/11/01 17:21:26;;;;;;;51.25;32.75;;;11.80;99.90;;;;;;5094734;28;20441;-73
2021/11/01 17:29:35;;;;;;;8.82;4.72;;;11.70;99.90;;;;;;5093227;28;20466;-75
2021/11/01 17:37:49;;;;;;;9.38;7.78;;;11.50;99.90;;;;;;5094233;28;20081;-75
2021/11/01 18:41:22;;;;;;;4.78;2.30;;;11.10;99.90;;;;;;5066932;28;20056;-75
2021/11/01 18:52:01;;;;;;;7.90;2.25;;;11.00;99.90;;;;;;5097470;28;20443;-76
2021/11/01 18:54:35;;;;;;;5.82;2.40;;;10.90;99.90;;;;;;5097067;28;20017;-72
2021/11/01 18:57:01;;;;;;;8.05;2.80;;;10.90;99.90;;;;;;5097353;28;20027;-73
2021/11/01 18:59:27;;;;;;;7.15;3.00;;;11.00;99.90;;;;;;5096984;28;20031;-74
2021/11/01 19:02:34;;;;;;;10.48;4.07;;;11.00;99.90;;;;;;5096911;28;20107;-71
2021/11/01 19:04:55;;;;;;;10.30;5.32;;;11.00;99.90;;;;;;5096349;28;20032;-73
2021/11/01 19:07:39;;;;;;;7.35;2.50;;;11.00;99.90;;;;;;5095286;28;20127;-75
2021/11/01 20:02:40;;;;;;;8.18;2.35;;;11.00;99.90;;;;;;5096511;28;20055;-73
2021/11/01 20:05:45;;;;;;;6.65;2.92;;;11.10;99.90;;;;;;5096026;28;20089;-75
2021/11/01 20:09:07;;;;;;;7.20;2.10;;;11.20;99.90;;;;;;5095666;28;20024;-74
2021/11/01 21:25:59;;;;;;;5.95;2.95;;;10.50;99.90;;;;;;5093894;28;20031;-75
2021/11/01 21:28:25;;;;;;;9.05;3.38;;;10.40;99.90;;;;;;5094014;28;20028;-72
2021/11/01 21:30:51;;;;;;;10.02;5.70;;;10.40;99.90;;;;;;5094069;28;20099;-74
2021/11/01 21:33:22;;;;;;;6.35;2.72;;;10.50;99.90;;;;;;5094031;28;20035;-74
2021/11/01 21:35:50;;;;;;;;;;;10.50;99.90;;;;;;5094754;28;20023;-72
2021/11/01 21:38:16;;;;;;;7.20;2.33;;;10.50;99.90;;;;;;5092644;28;20304;-73
2021/11/01 21:40:44;;;;;;;5.22;2.22;;;10.50;99.90;;;;;;5093877;28;20441;-72
2021/11/01 21:43:10;;;;;;;5.70;3.33;;;10.40;99.90;;;;;;5094132;28;20024;-72
2021/11/01 21:45:36;;;;;;;5.78;2.72;;;10.40;99.90;;;;;;5093795;28;20474;-74
2021/11/01 21:48:03;;;;;;;6.30;2.30;;;10.40;99.90;;;;;;5093699;28;20106;-76
2021/11/01 21:50:28;;;;;;;8.43;4.20;;;10.40;99.90;;;;;;5093716;28;20119;-72
2021/11/01 21:52:56;;;;;;;5.35;2.92;;;10.40;99.90;;;;;;5094221;28;20012;-73
2021/11/01 21:55:24;;;;;;;5.85;2.80;;;10.50;99.90;;;;;;5094186;28;20522;-73
2021/11/01 21:57:54;;;;;;;6.43;2.45;;;10.50;99.90;;;;;;5093580;28;20028;-76
2021/11/01 22:16:40;;;;;;;4.00;1.30;;;10.20;99.90;;;;;;5093455;28;20063;-71
2021/11/01 22:17:13;;;;;;;5.00;1.73;;;10.20;99.90;;;;;;5093244;28;20143;-73
2021/11/01 22:22:38;;;;;;;7.20;1.70;;;10.20;99.90;;;;;;5093618;28;20161;-76
2021/11/01 22:33:43;;;;;;;5.47;1.70;;;10.10;99.90;;;;;;5093277;28;20056;-71
2021/11/01 22:39:08;;;;;;;3.45;1.67;;;10.10;99.90;;;;;;5093676;28;20563;-73
2021/11/01 22:41:53;;;;;;;5.00;1.92;;;10.00;99.90;;;;;;5091625;28;20036;-75
2021/11/01 22:44:39;;;;;;;6.18;2.35;;;10.10;99.90;;;;;;5093691;28;20519;-75
2021/11/01 22:47:25;;;;;;;4.80;1.85;;;10.10;99.90;;;;;;5093153;28;20031;-75
2021/11/01 22:58:04;;;;;;;3.35;1.60;;;10.10;99.90;;;;;;5093215;28;20397;-74
2021/11/01 23:00:39;;;;;;;4.20;1.73;;;10.00;99.90;;;;;;5092821;28;20020;-76
2021/11/01 23:03:11;;;;;;;7.90;2.40;;;10.00;99.90;;;;;;5091423;28;20031;-72
2021/11/01 23:32:40;;;;;;;4.28;1.92;;;9.60;99.90;;;;;;5056393;28;20032;-74
2021/11/01 23:35:06;;;;;;;3.70;1.40;;;9.60;99.90;;;;;;5056046;28;20394;-74
2021/11/01 23:37:32;;;;;;;4.40;1.77;;;9.60;99.90;;;;;;5056542;28;20521;-72
2021/11/01 23:39:57;;;;;;;6.28;1.40;;;9.70;99.90;;;;;;5055960;28;20029;-75
2021/11/01 23:42:23;;;;;;;3.13;1.20;;;9.60;99.90;;;;;;5056174;28;20087;-73
2021/11/01 23:44:54;;;;;;;3.88;1.38;;;9.60;99.90;;;;;;5056101;28;20053;-73
2021/11/01 23:47:19;;;;;;;1.75;1.25;;;9.70;99.90;;;;;;5054291;28;20490;-73
2021/11/01 23:49:45;;;;;;;5.45;1.23;;;9.60;99.90;;;;;;5055688;28;20120;-74
2021/11/01 23:52:13;;;;;;;3.33;1.27;;;9.60;99.90;;;;;;5054402;28;20032;-74
2021/11/01 23:54:44;;;;;;;6.47;1.30;;;9.60;99.90;;;;;;5055950;28;20017;-74
2021/11/01 23:57:16;;;;;;;2.15;1.20;;;9.60;99.90;;;;;;5054102;28;20440;-73
2021/11/01 23:59:45;;;;;;;3.40;1.35;;;9.60;99.90;;;;;;5056083;28;20025;-75
